sensor_id;sensor_type;location;lat;lon;timestamp;P1;durP1;ratioP1;P2;durP2;ratioP2
12654;SDS011;6392;44.644;11.448;2023-08-20T00:00:40;7.70;;;5.55;;
12654;SDS011;6392;44.644;11.448;2023-08-20T00:03:10;8.52;;;5.93;;
12654;SDS011;6392;44.644;11.448;2023-08-20T00:05:39;6.55;;;5.93;;
12654;SDS011;6392;44.644;11.448;2023-08-20T00:08:06;6.53;;;5.60;;
12654;SDS011;6392;44.644;11.448;2023-08-20T00:10:33;7.80;;;6.65;;
12654;SDS011;6392;44.644;11.448;2023-08-20T00:13:00;5.93;;;5.32;;
12654;SDS011;6392;44.644;11.448;2023-08-20T00:15:29;9.02;;;5.82;;
12654;SDS011;6392;44.644;11.448;2023-08-20T00:17:56;6.20;;;5.13;;
12654;SDS011;6392;44.644;11.448;2023-08-20T00:20:25;6.15;;;5.55;;
12654;SDS011;6392;44.644;11.448;2023-08-20T00:22:54;7.85;;;6.07;;
12654;SDS011;6392;44.644;11.448;2023-08-20T00:25:21;7.88;;;5.72;;
12654;SDS011;6392;44.644;11.448;2023-08-20T00:27:49;7.55;;;6.53;;
12654;SDS011;6392;44.644;11.448;2023-08-20T00:30:16;7.72;;;5.95;;
12654;SDS011;6392;44.644;11.448;2023-08-20T00:32:43;7.07;;;6.35;;
12654;SDS011;6392;44.644;11.448;2023-08-20T00:35:10;6.93;;;5.53;;
12654;SDS011;6392;44.644;11.448;2023-08-20T00:37:38;8.70;;;5.63;;
12654;SDS011;6392;44.644;11.448;2023-08-20T00:40:06;6.93;;;5.93;;
12654;SDS011;6392;44.644;11.448;2023-08-20T00:42:34;7.05;;;6.03;;
12654;SDS011;6392;44.644;11.448;2023-08-20T00:45:02;6.95;;;6.25;;
12654;SDS011;6392;44.644;11.448;2023-08-20T00:47:30;10.13;;;5.65;;
12654;SDS011;6392;44.644;11.448;2023-08-20T00:49:58;6.13;;;5.47;;
12654;SDS011;6392;44.644;11.448;2023-08-20T00:52:25;8.55;;;5.40;;
12654;SDS011;6392;44.644;11.448;2023-08-20T00:54:53;6.55;;;5.85;;
12654;SDS011;6392;44.644;11.448;2023-08-20T00:57:20;9.30;;;5.75;;
12654;SDS011;6392;44.644;11.448;2023-08-20T00:59:49;7.35;;;5.78;;
12654;SDS011;6392;44.644;11.448;2023-08-20T01:02:18;7.40;;;6.60;;
12654;SDS011;6392;44.644;11.448;2023-08-20T01:04:56;8.77;;;6.35;;
12654;SDS011;6392;44.644;11.448;2023-08-20T01:07:24;6.32;;;5.70;;
12654;SDS011;6392;44.644;11.448;2023-08-20T01:10:01;6.93;;;5.50;;
12654;SDS011;6392;44.644;11.448;2023-08-20T01:12:36;7.43;;;5.82;;
12654;SDS011;6392;44.644;11.448;2023-08-20T01:15:06;7.47;;;5.65;;
12654;SDS011;6392;44.644;11.448;2023-08-20T01:17:38;7.18;;;6.15;;
12654;SDS011;6392;44.644;11.448;2023-08-20T01:20:06;6.78;;;5.57;;
12654;SDS011;6392;44.644;11.448;2023-08-20T01:22:50;7.20;;;5.68;;
12654;SDS011;6392;44.644;11.448;2023-08-20T01:25:32;5.93;;;5.43;;
12654;SDS011;6392;44.644;11.448;2023-08-20T01:28:22;6.63;;;5.00;;
12654;SDS011;6392;44.644;11.448;2023-08-20T01:30:51;7.07;;;5.68;;
12654;SDS011;6392;44.644;11.448;2023-08-20T01:33:20;7.80;;;5.50;;
12654;SDS011;6392;44.644;11.448;2023-08-20T01:35:47;7.65;;;5.88;;
12654;SDS011;6392;44.644;11.448;2023-08-20T01:38:14;5.97;;;5.38;;
12654;SDS011;6392;44.644;11.448;2023-08-20T01:40:41;6.82;;;6.00;;
12654;SDS011;6392;44.644;11.448;2023-08-20T01:43:09;6.00;;;5.40;;
12654;SDS011;6392;44.644;11.448;2023-08-20T01:45:37;6.72;;;6.03;;
12654;SDS011;6392;44.644;11.448;2023-08-20T01:48:04;8.65;;;5.97;;
12654;SDS011;6392;44.644;11.448;2023-08-20T01:50:32;7.07;;;6.38;;
12654;SDS011;6392;44.644;11.448;2023-08-20T01:53:01;7.93;;;6.15;;
12654;SDS011;6392;44.644;11.448;2023-08-20T01:55:28;6.72;;;6.10;;
12654;SDS011;6392;44.644;11.448;2023-08-20T01:57:54;6.45;;;5.75;;
12654;SDS011;6392;44.644;11.448;2023-08-20T02:00:21;6.50;;;5.85;;
12654;SDS011;6392;44.644;11.448;2023-08-20T02:02:50;7.82;;;5.93;;
12654;SDS011;6392;44.644;11.448;2023-08-20T02:05:18;9.57;;;6.45;;
12654;SDS011;6392;44.644;11.448;2023-08-20T02:07:44;7.18;;;6.40;;
12654;SDS011;6392;44.644;11.448;2023-08-20T02:10:11;6.93;;;6.22;;
12654;SDS011;6392;44.644;11.448;2023-08-20T02:12:39;7.55;;;6.68;;
12654;SDS011;6392;44.644;11.448;2023-08-20T02:15:07;8.02;;;6.70;;
12654;SDS011;6392;44.644;11.448;2023-08-20T02:17:36;8.35;;;6.32;;
12654;SDS011;6392;44.644;11.448;2023-08-20T02:20:05;10.50;;;6.47;;
12654;SDS011;6392;44.644;11.448;2023-08-20T02:22:35;10.18;;;5.82;;
12654;SDS011;6392;44.644;11.448;2023-08-20T02:25:02;9.20;;;5.95;;
12654;SDS011;6392;44.644;11.448;2023-08-20T02:27:29;6.38;;;5.78;;
12654;SDS011;6392;44.644;11.448;2023-08-20T02:29:56;7.88;;;6.63;;
12654;SDS011;6392;44.644;11.448;2023-08-20T02:32:23;6.80;;;6.00;;
12654;SDS011;6392;44.644;11.448;2023-08-20T02:34:50;9.35;;;5.35;;
12654;SDS011;6392;44.644;11.448;2023-08-20T02:37:20;6.85;;;5.30;;
12654;SDS011;6392;44.644;11.448;2023-08-20T02:39:46;7.00;;;6.30;;
12654;SDS011;6392;44.644;11.448;2023-08-20T02:42:13;6.82;;;5.50;;
12654;SDS011;6392;44.644;11.448;2023-08-20T02:44:40;6.53;;;5.85;;
12654;SDS011;6392;44.644;11.448;2023-08-20T02:47:07;6.15;;;5.53;;
12654;SDS011;6392;44.644;11.448;2023-08-20T02:49:34;6.90;;;6.30;;
12654;SDS011;6392;44.644;11.448;2023-08-20T02:52:01;8.07;;;6.53;;
12654;SDS011;6392;44.644;11.448;2023-08-20T02:54:30;7.77;;;6.60;;
12654;SDS011;6392;44.644;11.448;2023-08-20T02:56:58;7.45;;;6.72;;
12654;SDS011;6392;44.644;11.448;2023-08-20T02:59:25;8.07;;;6.53;;
12654;SDS011;6392;44.644;11.448;2023-08-20T03:01:52;7.88;;;7.03;;
12654;SDS011;6392;44.644;11.448;2023-08-20T03:04:19;7.95;;;7.25;;
12654;SDS011;6392;44.644;11.448;2023-08-20T03:06:46;9.68;;;7.63;;
12654;SDS011;6392;44.644;11.448;2023-08-20T03:09:13;7.70;;;6.90;;
12654;SDS011;6392;44.644;11.448;2023-08-20T03:11:42;8.40;;;6.80;;
12654;SDS011;6392;44.644;11.448;2023-08-20T03:14:09;9.25;;;7.18;;
12654;SDS011;6392;44.644;11.448;2023-08-20T03:16:36;12.38;;;8.10;;
12654;SDS011;6392;44.644;11.448;2023-08-20T03:19:03;9.07;;;7.78;;
12654;SDS011;6392;44.644;11.448;2023-08-20T03:21:30;8.87;;;7.57;;
12654;SDS011;6392;44.644;11.448;2023-08-20T03:23:57;9.52;;;7.82;;
12654;SDS011;6392;44.644;11.448;2023-08-20T03:26:24;9.27;;;7.85;;
12654;SDS011;6392;44.644;11.448;2023-08-20T03:28:53;11.83;;;7.63;;
12654;SDS011;6392;44.644;11.448;2023-08-20T03:31:20;10.77;;;8.50;;
12654;SDS011;6392;44.644;11.448;2023-08-20T03:33:47;8.55;;;7.70;;
12654;SDS011;6392;44.644;11.448;2023-08-20T03:36:15;8.98;;;7.45;;
12654;SDS011;6392;44.644;11.448;2023-08-20T03:38:42;10.68;;;7.60;;
12654;SDS011;6392;44.644;11.448;2023-08-20T03:41:09;10.18;;;7.00;;
12654;SDS011;6392;44.644;11.448;2023-08-20T03:43:36;8.75;;;7.75;;
12654;SDS011;6392;44.644;11.448;2023-08-20T03:46:04;11.18;;;6.78;;
12654;SDS011;6392;44.644;11.448;2023-08-20T03:48:31;7.73;;;6.63;;
12654;SDS011;6392;44.644;11.448;2023-08-20T03:50:58;8.13;;;7.32;;
12654;SDS011;6392;44.644;11.448;2023-08-20T03:53:25;8.20;;;7.27;;
12654;SDS011;6392;44.644;11.448;2023-08-20T03:55:52;9.35;;;7.97;;
12654;SDS011;6392;44.644;11.448;2023-08-20T03:58:19;11.55;;;7.82;;
12654;SDS011;6392;44.644;11.448;2023-08-20T04:00:46;6.88;;;6.18;;
12654;SDS011;6392;44.644;11.448;2023-08-20T04:03:14;19.13;;;6.57;;
12654;SDS011;6392;44.644;11.448;2023-08-20T04:05:44;9.00;;;6.90;;
12654;SDS011;6392;44.644;11.448;2023-08-20T04:08:11;7.05;;;6.22;;
12654;SDS011;6392;44.644;11.448;2023-08-20T04:10:42;8.93;;;6.87;;
12654;SDS011;6392;44.644;11.448;2023-08-20T04:13:10;7.77;;;6.93;;
12654;SDS011;6392;44.644;11.448;2023-08-20T04:15:39;7.88;;;6.82;;
12654;SDS011;6392;44.644;11.448;2023-08-20T04:18:06;7.57;;;6.87;;
12654;SDS011;6392;44.644;11.448;2023-08-20T04:20:34;9.88;;;6.97;;
12654;SDS011;6392;44.644;11.448;2023-08-20T04:23:02;8.33;;;7.13;;
12654;SDS011;6392;44.644;11.448;2023-08-20T04:25:29;9.50;;;8.00;;
12654;SDS011;6392;44.644;11.448;2023-08-20T04:27:56;10.07;;;6.97;;
12654;SDS011;6392;44.644;11.448;2023-08-20T04:30:23;8.17;;;7.37;;
12654;SDS011;6392;44.644;11.448;2023-08-20T04:32:50;10.03;;;7.90;;
12654;SDS011;6392;44.644;11.448;2023-08-20T04:35:17;10.03;;;7.63;;
12654;SDS011;6392;44.644;11.448;2023-08-20T04:37:46;9.38;;;8.00;;
12654;SDS011;6392;44.644;11.448;2023-08-20T04:40:13;9.35;;;7.78;;
12654;SDS011;6392;44.644;11.448;2023-08-20T04:42:40;9.25;;;8.07;;
12654;SDS011;6392;44.644;11.448;2023-08-20T04:45:07;8.77;;;7.23;;
12654;SDS011;6392;44.644;11.448;2023-08-20T04:47:35;9.60;;;7.67;;
12654;SDS011;6392;44.644;11.448;2023-08-20T04:50:02;9.83;;;7.63;;
12654;SDS011;6392;44.644;11.448;2023-08-20T04:52:31;10.80;;;8.20;;
12654;SDS011;6392;44.644;11.448;2023-08-20T04:55:00;10.57;;;8.17;;
12654;SDS011;6392;44.644;11.448;2023-08-20T04:57:27;11.13;;;8.60;;
12654;SDS011;6392;44.644;11.448;2023-08-20T04:59:54;10.70;;;9.03;;
12654;SDS011;6392;44.644;11.448;2023-08-20T05:02:21;9.97;;;8.80;;
12654;SDS011;6392;44.644;11.448;2023-08-20T05:04:48;13.30;;;9.30;;
12654;SDS011;6392;44.644;11.448;2023-08-20T05:07:15;12.45;;;9.40;;
12654;SDS011;6392;44.644;11.448;2023-08-20T05:09:42;10.50;;;8.60;;
12654;SDS011;6392;44.644;11.448;2023-08-20T05:12:11;10.02;;;9.02;;
12654;SDS011;6392;44.644;11.448;2023-08-20T05:14:38;10.27;;;8.77;;
12654;SDS011;6392;44.644;11.448;2023-08-20T05:17:05;9.23;;;7.90;;
12654;SDS011;6392;44.644;11.448;2023-08-20T05:19:32;9.82;;;7.70;;
12654;SDS011;6392;44.644;11.448;2023-08-20T05:21:59;8.60;;;7.70;;
12654;SDS011;6392;44.644;11.448;2023-08-20T05:24:25;8.20;;;7.30;;
12654;SDS011;6392;44.644;11.448;2023-08-20T05:27:06;7.97;;;7.20;;
12654;SDS011;6392;44.644;11.448;2023-08-20T05:29:35;9.17;;;7.33;;
12654;SDS011;6392;44.644;11.448;2023-08-20T05:32:02;8.93;;;7.27;;
12654;SDS011;6392;44.644;11.448;2023-08-20T05:34:30;12.60;;;7.38;;
12654;SDS011;6392;44.644;11.448;2023-08-20T05:36:57;7.60;;;6.75;;
12654;SDS011;6392;44.644;11.448;2023-08-20T05:39:24;7.97;;;7.18;;
12654;SDS011;6392;44.644;11.448;2023-08-20T05:41:51;8.15;;;7.18;;
12654;SDS011;6392;44.644;11.448;2023-08-20T05:44:18;8.55;;;7.15;;
12654;SDS011;6392;44.644;11.448;2023-08-20T05:46:47;7.53;;;6.82;;
12654;SDS011;6392;44.644;11.448;2023-08-20T05:49:14;7.85;;;7.00;;
12654;SDS011;6392;44.644;11.448;2023-08-20T05:51:41;8.23;;;7.35;;
12654;SDS011;6392;44.644;11.448;2023-08-20T05:54:08;7.65;;;6.85;;
12654;SDS011;6392;44.644;11.448;2023-08-20T05:56:35;8.50;;;7.32;;
12654;SDS011;6392;44.644;11.448;2023-08-20T05:59:03;8.07;;;7.28;;
12654;SDS011;6392;44.644;11.448;2023-08-20T06:01:30;10.18;;;7.45;;
12654;SDS011;6392;44.644;11.448;2023-08-20T06:03:58;9.82;;;7.72;;
12654;SDS011;6392;44.644;11.448;2023-08-20T06:06:26;9.25;;;7.53;;
12654;SDS011;6392;44.644;11.448;2023-08-20T06:08:54;10.50;;;7.75;;
12654;SDS011;6392;44.644;11.448;2023-08-20T06:11:21;9.82;;;7.95;;
12654;SDS011;6392;44.644;11.448;2023-08-20T06:13:48;9.05;;;8.10;;
12654;SDS011;6392;44.644;11.448;2023-08-20T06:16:15;10.48;;;7.72;;
12654;SDS011;6392;44.644;11.448;2023-08-20T06:18:42;8.93;;;7.47;;
12654;SDS011;6392;44.644;11.448;2023-08-20T06:21:10;10.05;;;8.20;;
12654;SDS011;6392;44.644;11.448;2023-08-20T06:23:38;9.10;;;8.13;;
12654;SDS011;6392;44.644;11.448;2023-08-20T06:26:05;9.32;;;7.53;;
12654;SDS011;6392;44.644;11.448;2023-08-20T06:28:32;9.05;;;8.15;;
12654;SDS011;6392;44.644;11.448;2023-08-20T06:30:59;10.15;;;8.30;;
12654;SDS011;6392;44.644;11.448;2023-08-20T06:33:26;11.00;;;9.00;;
12654;SDS011;6392;44.644;11.448;2023-08-20T06:35:53;13.93;;;10.00;;
12654;SDS011;6392;44.644;11.448;2023-08-20T06:38:21;12.73;;;9.15;;
12654;SDS011;6392;44.644;11.448;2023-08-20T06:40:48;11.40;;;10.30;;
12654;SDS011;6392;44.644;11.448;2023-08-20T06:43:16;12.07;;;10.63;;
12654;SDS011;6392;44.644;11.448;2023-08-20T06:45:43;14.35;;;12.85;;
12654;SDS011;6392;44.644;11.448;2023-08-20T06:48:10;16.00;;;13.95;;
12654;SDS011;6392;44.644;11.448;2023-08-20T06:50:37;19.27;;;13.00;;
12654;SDS011;6392;44.644;11.448;2023-08-20T06:53:04;12.88;;;11.57;;
12654;SDS011;6392;44.644;11.448;2023-08-20T06:55:32;13.43;;;11.65;;
12654;SDS011;6392;44.644;11.448;2023-08-20T06:58:00;14.80;;;10.75;;
12654;SDS011;6392;44.644;11.448;2023-08-20T07:00:27;14.52;;;10.50;;
12654;SDS011;6392;44.644;11.448;2023-08-20T07:02:54;10.77;;;9.57;;
12654;SDS011;6392;44.644;11.448;2023-08-20T07:05:21;15.68;;;10.95;;
12654;SDS011;6392;44.644;11.448;2023-08-20T07:07:48;15.32;;;9.95;;
12654;SDS011;6392;44.644;11.448;2023-08-20T07:10:15;12.15;;;10.70;;
12654;SDS011;6392;44.644;11.448;2023-08-20T07:12:43;12.50;;;10.60;;
12654;SDS011;6392;44.644;11.448;2023-08-20T07:15:10;12.80;;;11.20;;
12654;SDS011;6392;44.644;11.448;2023-08-20T07:17:37;12.82;;;10.50;;
12654;SDS011;6392;44.644;11.448;2023-08-20T07:20:05;11.73;;;10.07;;
12654;SDS011;6392;44.644;11.448;2023-08-20T07:22:33;15.88;;;10.30;;
12654;SDS011;6392;44.644;11.448;2023-08-20T07:25:00;11.40;;;10.30;;
12654;SDS011;6392;44.644;11.448;2023-08-20T07:27:27;12.77;;;10.52;;
12654;SDS011;6392;44.644;11.448;2023-08-20T07:29:55;12.07;;;10.13;;
12654;SDS011;6392;44.644;11.448;2023-08-20T07:32:22;11.32;;;10.00;;
12654;SDS011;6392;44.644;11.448;2023-08-20T07:34:49;12.63;;;10.75;;
12654;SDS011;6392;44.644;11.448;2023-08-20T07:37:16;13.32;;;11.15;;
12654;SDS011;6392;44.644;11.448;2023-08-20T07:39:43;13.02;;;10.50;;
12654;SDS011;6392;44.644;11.448;2023-08-20T07:42:10;11.40;;;10.27;;
12654;SDS011;6392;44.644;11.448;2023-08-20T07:44:37;13.13;;;10.68;;
12654;SDS011;6392;44.644;11.448;2023-08-20T07:47:06;13.73;;;11.30;;
12654;SDS011;6392;44.644;11.448;2023-08-20T07:49:33;12.07;;;10.70;;
12654;SDS011;6392;44.644;11.448;2023-08-20T07:52:00;11.80;;;10.48;;
12654;SDS011;6392;44.644;11.448;2023-08-20T07:54:27;10.35;;;9.38;;
12654;SDS011;6392;44.644;11.448;2023-08-20T07:56:54;12.35;;;9.02;;
12654;SDS011;6392;44.644;11.448;2023-08-20T07:59:21;11.60;;;10.40;;
12654;SDS011;6392;44.644;11.448;2023-08-20T08:01:48;12.25;;;11.02;;
12654;SDS011;6392;44.644;11.448;2023-08-20T08:04:17;12.07;;;10.88;;
12654;SDS011;6392;44.644;11.448;2023-08-20T08:06:43;11.63;;;10.43;;
12654;SDS011;6392;44.644;11.448;2023-08-20T08:11:56;11.85;;;10.68;;
12654;SDS011;6392;44.644;11.448;2023-08-20T08:14:24;16.45;;;12.68;;
12654;SDS011;6392;44.644;11.448;2023-08-20T08:16:51;11.80;;;10.68;;
12654;SDS011;6392;44.644;11.448;2023-08-20T08:19:20;11.95;;;10.65;;
12654;SDS011;6392;44.644;11.448;2023-08-20T08:21:47;12.23;;;11.00;;
12654;SDS011;6392;44.644;11.448;2023-08-20T08:24:14;12.80;;;11.35;;
12654;SDS011;6392;44.644;11.448;2023-08-20T08:26:41;16.02;;;10.90;;
12654;SDS011;6392;44.644;11.448;2023-08-20T08:29:08;12.25;;;10.98;;
12654;SDS011;6392;44.644;11.448;2023-08-20T08:31:35;12.20;;;10.90;;
12654;SDS011;6392;44.644;11.448;2023-08-20T08:34:02;11.00;;;9.90;;
12654;SDS011;6392;44.644;11.448;2023-08-20T08:36:31;10.95;;;9.90;;
12654;SDS011;6392;44.644;11.448;2023-08-20T08:38:58;10.77;;;9.73;;
12654;SDS011;6392;44.644;11.448;2023-08-20T08:41:25;11.77;;;10.15;;
12654;SDS011;6392;44.644;11.448;2023-08-20T08:43:54;11.18;;;9.68;;
12654;SDS011;6392;44.644;11.448;2023-08-20T08:46:22;11.00;;;9.82;;
12654;SDS011;6392;44.644;11.448;2023-08-20T08:48:50;10.52;;;9.43;;
12654;SDS011;6392;44.644;11.448;2023-08-20T08:51:18;10.73;;;9.45;;
12654;SDS011;6392;44.644;11.448;2023-08-20T08:53:47;11.75;;;10.55;;
12654;SDS011;6392;44.644;11.448;2023-08-20T08:56:14;10.13;;;8.63;;
12654;SDS011;6392;44.644;11.448;2023-08-20T08:58:41;10.40;;;9.45;;
12654;SDS011;6392;44.644;11.448;2023-08-20T09:01:08;9.70;;;8.80;;
12654;SDS011;6392;44.644;11.448;2023-08-20T09:03:35;10.70;;;9.60;;
12654;SDS011;6392;44.644;11.448;2023-08-20T09:06:02;10.07;;;9.07;;
12654;SDS011;6392;44.644;11.448;2023-08-20T09:08:35;9.48;;;8.57;;
12654;SDS011;6392;44.644;11.448;2023-08-20T09:11:04;10.43;;;9.35;;
12654;SDS011;6392;44.644;11.448;2023-08-20T09:13:32;10.13;;;9.23;;
12654;SDS011;6392;44.644;11.448;2023-08-20T09:16:02;8.52;;;7.72;;
12654;SDS011;6392;44.644;11.448;2023-08-20T09:18:30;9.55;;;8.65;;
12654;SDS011;6392;44.644;11.448;2023-08-20T09:20:57;9.50;;;8.57;;
12654;SDS011;6392;44.644;11.448;2023-08-20T09:23:26;8.90;;;8.00;;
12654;SDS011;6392;44.644;11.448;2023-08-20T09:25:55;10.13;;;8.35;;
12654;SDS011;6392;44.644;11.448;2023-08-20T09:28:24;8.73;;;7.88;;
12654;SDS011;6392;44.644;11.448;2023-08-20T09:30:54;8.68;;;7.88;;
12654;SDS011;6392;44.644;11.448;2023-08-20T09:33:22;8.90;;;7.72;;
12654;SDS011;6392;44.644;11.448;2023-08-20T09:35:49;9.27;;;7.75;;
12654;SDS011;6392;44.644;11.448;2023-08-20T09:38:18;7.95;;;7.25;;
12654;SDS011;6392;44.644;11.448;2023-08-20T09:40:46;7.57;;;6.95;;
12654;SDS011;6392;44.644;11.448;2023-08-20T09:43:16;9.90;;;7.72;;
12654;SDS011;6392;44.644;11.448;2023-08-20T09:45:44;9.82;;;8.57;;
12654;SDS011;6392;44.644;11.448;2023-08-20T09:48:13;10.23;;;8.63;;
12654;SDS011;6392;44.644;11.448;2023-08-20T09:50:44;9.38;;;8.35;;
12654;SDS011;6392;44.644;11.448;2023-08-20T09:53:17;8.85;;;7.95;;
12654;SDS011;6392;44.644;11.448;2023-08-20T09:55:52;8.95;;;8.05;;
12654;SDS011;6392;44.644;11.448;2023-08-20T09:58:27;10.30;;;8.60;;
12654;SDS011;6392;44.644;11.448;2023-08-20T10:00:56;9.88;;;8.88;;
12654;SDS011;6392;44.644;11.448;2023-08-20T10:03:24;8.38;;;7.07;;
12654;SDS011;6392;44.644;11.448;2023-08-20T10:05:51;7.00;;;6.30;;
12654;SDS011;6392;44.644;11.448;2023-08-20T10:08:18;7.80;;;7.13;;
12654;SDS011;6392;44.644;11.448;2023-08-20T10:10:46;9.50;;;8.57;;
12654;SDS011;6392;44.644;11.448;2023-08-20T10:13:13;8.48;;;7.72;;
12654;SDS011;6392;44.644;11.448;2023-08-20T10:15:41;8.30;;;7.55;;
12654;SDS011;6392;44.644;11.448;2023-08-20T10:18:10;8.20;;;7.40;;
12654;SDS011;6392;44.644;11.448;2023-08-20T10:20:38;8.40;;;7.47;;
12654;SDS011;6392;44.644;11.448;2023-08-20T10:23:06;8.75;;;7.95;;
12654;SDS011;6392;44.644;11.448;2023-08-20T10:25:40;7.88;;;7.07;;
12654;SDS011;6392;44.644;11.448;2023-08-20T10:28:12;8.02;;;7.32;;
12654;SDS011;6392;44.644;11.448;2023-08-20T10:31:03;7.90;;;7.13;;
12654;SDS011;6392;44.644;11.448;2023-08-20T10:33:34;6.00;;;5.50;;
12654;SDS011;6392;44.644;11.448;2023-08-20T10:36:09;8.55;;;7.75;;
12654;SDS011;6392;44.644;11.448;2023-08-20T10:38:39;8.43;;;7.65;;
12654;SDS011;6392;44.644;11.448;2023-08-20T10:41:06;8.35;;;7.30;;
12654;SDS011;6392;44.644;11.448;2023-08-20T10:43:35;7.43;;;6.72;;
12654;SDS011;6392;44.644;11.448;2023-08-20T10:46:04;7.70;;;7.00;;
12654;SDS011;6392;44.644;11.448;2023-08-20T10:48:31;8.10;;;7.28;;
12654;SDS011;6392;44.644;11.448;2023-08-20T10:51:10;7.85;;;7.05;;
12654;SDS011;6392;44.644;11.448;2023-08-20T10:53:39;7.22;;;6.53;;
12654;SDS011;6392;44.644;11.448;2023-08-20T10:56:07;8.23;;;7.05;;
12654;SDS011;6392;44.644;11.448;2023-08-20T10:58:35;8.40;;;7.60;;
12654;SDS011;6392;44.644;11.448;2023-08-20T11:01:16;8.57;;;7.20;;
12654;SDS011;6392;44.644;11.448;2023-08-20T11:03:46;8.73;;;7.82;;
12654;SDS011;6392;44.644;11.448;2023-08-20T11:06:15;6.22;;;5.72;;
12654;SDS011;6392;44.644;11.448;2023-08-20T11:08:42;8.27;;;7.55;;
12654;SDS011;6392;44.644;11.448;2023-08-20T11:11:10;8.57;;;7.75;;
12654;SDS011;6392;44.644;11.448;2023-08-20T11:13:38;8.13;;;7.35;;
12654;SDS011;6392;44.644;11.448;2023-08-20T11:16:05;6.95;;;6.35;;
12654;SDS011;6392;44.644;11.448;2023-08-20T11:18:34;8.30;;;7.40;;
12654;SDS011;6392;44.644;11.448;2023-08-20T11:21:02;8.15;;;7.45;;
12654;SDS011;6392;44.644;11.448;2023-08-20T11:23:30;8.35;;;7.55;;
12654;SDS011;6392;44.644;11.448;2023-08-20T11:25:58;6.32;;;5.72;;
12654;SDS011;6392;44.644;11.448;2023-08-20T11:28:26;8.27;;;7.35;;
12654;SDS011;6392;44.644;11.448;2023-08-20T11:30:53;8.20;;;7.45;;
12654;SDS011;6392;44.644;11.448;2023-08-20T11:33:21;8.85;;;7.28;;
12654;SDS011;6392;44.644;11.448;2023-08-20T11:35:49;7.90;;;7.20;;
12654;SDS011;6392;44.644;11.448;2023-08-20T11:38:17;8.25;;;7.00;;
12654;SDS011;6392;44.644;11.448;2023-08-20T11:40:47;6.88;;;6.28;;
12654;SDS011;6392;44.644;11.448;2023-08-20T11:43:14;7.95;;;7.10;;
12654;SDS011;6392;44.644;11.448;2023-08-20T11:45:46;7.97;;;6.35;;
12654;SDS011;6392;44.644;11.448;2023-08-20T11:48:14;7.97;;;7.05;;
12654;SDS011;6392;44.644;11.448;2023-08-20T11:50:42;8.40;;;7.45;;
12654;SDS011;6392;44.644;11.448;2023-08-20T11:53:09;7.60;;;6.80;;
12654;SDS011;6392;44.644;11.448;2023-08-20T11:55:38;7.85;;;7.05;;
12654;SDS011;6392;44.644;11.448;2023-08-20T11:58:09;7.90;;;7.20;;
12654;SDS011;6392;44.644;11.448;2023-08-20T12:00:37;7.43;;;6.72;;
12654;SDS011;6392;44.644;11.448;2023-08-20T12:03:05;6.47;;;5.88;;
12654;SDS011;6392;44.644;11.448;2023-08-20T12:05:33;7.18;;;6.47;;
12654;SDS011;6392;44.644;11.448;2023-08-20T12:08:00;7.95;;;6.13;;
12654;SDS011;6392;44.644;11.448;2023-08-20T12:10:29;7.35;;;6.65;;
12654;SDS011;6392;44.644;11.448;2023-08-20T12:12:59;6.63;;;5.95;;
12654;SDS011;6392;44.644;11.448;2023-08-20T12:15:26;8.10;;;6.75;;
12654;SDS011;6392;44.644;11.448;2023-08-20T12:17:56;7.38;;;6.43;;
12654;SDS011;6392;44.644;11.448;2023-08-20T12:20:28;6.63;;;6.03;;
12654;SDS011;6392;44.644;11.448;2023-08-20T12:22:59;7.60;;;6.45;;
12654;SDS011;6392;44.644;11.448;2023-08-20T12:25:29;6.53;;;5.90;;
12654;SDS011;6392;44.644;11.448;2023-08-20T12:27:58;6.80;;;6.15;;
12654;SDS011;6392;44.644;11.448;2023-08-20T12:30:26;6.20;;;5.70;;
12654;SDS011;6392;44.644;11.448;2023-08-20T12:32:53;6.30;;;5.72;;
12654;SDS011;6392;44.644;11.448;2023-08-20T12:35:20;7.25;;;6.55;;
12654;SDS011;6392;44.644;11.448;2023-08-20T12:37:47;7.32;;;6.63;;
12654;SDS011;6392;44.644;11.448;2023-08-20T12:40:14;7.10;;;6.47;;
12654;SDS011;6392;44.644;11.448;2023-08-20T12:42:41;6.45;;;5.85;;
12654;SDS011;6392;44.644;11.448;2023-08-20T12:45:11;8.98;;;5.93;;
12654;SDS011;6392;44.644;11.448;2023-08-20T12:47:38;6.82;;;5.93;;
12654;SDS011;6392;44.644;11.448;2023-08-20T12:50:06;6.28;;;5.78;;
12654;SDS011;6392;44.644;11.448;2023-08-20T12:52:33;5.80;;;5.30;;
12654;SDS011;6392;44.644;11.448;2023-08-20T12:55:01;7.60;;;6.20;;
12654;SDS011;6392;44.644;11.448;2023-08-20T12:57:28;6.13;;;5.53;;
12654;SDS011;6392;44.644;11.448;2023-08-20T12:59:55;6.65;;;6.05;;
12654;SDS011;6392;44.644;11.448;2023-08-20T13:02:24;6.95;;;6.25;;
12654;SDS011;6392;44.644;11.448;2023-08-20T13:04:51;10.02;;;6.13;;
12654;SDS011;6392;44.644;11.448;2023-08-20T13:07:19;5.93;;;5.32;;
12654;SDS011;6392;44.644;11.448;2023-08-20T13:09:46;6.15;;;5.60;;
12654;SDS011;6392;44.644;11.448;2023-08-20T13:12:14;6.45;;;5.88;;
12654;SDS011;6392;44.644;11.448;2023-08-20T13:14:44;6.68;;;6.07;;
12654;SDS011;6392;44.644;11.448;2023-08-20T13:17:12;6.97;;;5.93;;
12654;SDS011;6392;44.644;11.448;2023-08-20T13:19:41;6.85;;;6.07;;
12654;SDS011;6392;44.644;11.448;2023-08-20T13:22:08;6.25;;;5.75;;
12654;SDS011;6392;44.644;11.448;2023-08-20T13:24:35;6.25;;;5.60;;
12654;SDS011;6392;44.644;11.448;2023-08-20T13:27:02;6.63;;;5.95;;
12654;SDS011;6392;44.644;11.448;2023-08-20T13:29:29;7.35;;;6.65;;
12654;SDS011;6392;44.644;11.448;2023-08-20T13:31:56;6.03;;;5.38;;
12654;SDS011;6392;44.644;11.448;2023-08-20T13:34:23;6.05;;;5.55;;
12654;SDS011;6392;44.644;11.448;2023-08-20T13:36:51;7.78;;;5.75;;
12654;SDS011;6392;44.644;11.448;2023-08-20T13:39:18;6.53;;;5.65;;
12654;SDS011;6392;44.644;11.448;2023-08-20T13:41:46;7.63;;;6.20;;
12654;SDS011;6392;44.644;11.448;2023-08-20T13:44:15;6.88;;;6.28;;
12654;SDS011;6392;44.644;11.448;2023-08-20T13:46:42;7.05;;;6.35;;
12654;SDS011;6392;44.644;11.448;2023-08-20T13:49:09;6.80;;;6.13;;
12654;SDS011;6392;44.644;11.448;2023-08-20T13:51:36;6.32;;;5.72;;
12654;SDS011;6392;44.644;11.448;2023-08-20T13:54:04;6.95;;;6.25;;
12654;SDS011;6392;44.644;11.448;2023-08-20T13:56:31;6.25;;;5.72;;
12654;SDS011;6392;44.644;11.448;2023-08-20T13:58:58;7.10;;;6.35;;
12654;SDS011;6392;44.644;11.448;2023-08-20T14:01:25;7.25;;;6.22;;
12654;SDS011;6392;44.644;11.448;2023-08-20T14:03:52;6.18;;;5.60;;
12654;SDS011;6392;44.644;11.448;2023-08-20T14:06:19;6.30;;;5.70;;
12654;SDS011;6392;44.644;11.448;2023-08-20T14:08:46;6.85;;;5.70;;
12654;SDS011;6392;44.644;11.448;2023-08-20T14:11:15;5.95;;;5.45;;
12654;SDS011;6392;44.644;11.448;2023-08-20T14:13:42;7.45;;;6.32;;
12654;SDS011;6392;44.644;11.448;2023-08-20T14:16:09;8.73;;;6.00;;
12654;SDS011;6392;44.644;11.448;2023-08-20T14:18:36;7.13;;;5.93;;
12654;SDS011;6392;44.644;11.448;2023-08-20T14:21:03;6.65;;;5.95;;
12654;SDS011;6392;44.644;11.448;2023-08-20T14:23:30;5.95;;;5.43;;
12654;SDS011;6392;44.644;11.448;2023-08-20T14:25:57;6.47;;;5.88;;
12654;SDS011;6392;44.644;11.448;2023-08-20T14:28:25;6.35;;;5.57;;
12654;SDS011;6392;44.644;11.448;2023-08-20T14:30:52;5.90;;;5.13;;
12654;SDS011;6392;44.644;11.448;2023-08-20T14:33:20;5.47;;;4.97;;
12654;SDS011;6392;44.644;11.448;2023-08-20T14:35:47;6.07;;;5.28;;
12654;SDS011;6392;44.644;11.448;2023-08-20T14:38:14;5.43;;;4.93;;
12654;SDS011;6392;44.644;11.448;2023-08-20T14:40:41;6.75;;;5.22;;
12654;SDS011;6392;44.644;11.448;2023-08-20T14:43:08;5.72;;;5.03;;
12654;SDS011;6392;44.644;11.448;2023-08-20T14:45:37;5.68;;;4.88;;
12654;SDS011;6392;44.644;11.448;2023-08-20T14:48:04;6.18;;;5.22;;
12654;SDS011;6392;44.644;11.448;2023-08-20T14:50:31;5.22;;;4.72;;